createdAt,value
2023-01-20T00:01:39.215Z,70.00
2023-01-20T00:04:06.976Z,69.87
2023-01-20T00:06:35.140Z,69.81
2023-01-20T00:09:05.404Z,69.89
2023-01-20T00:11:33.923Z,70.00
2023-01-20T00:14:02.803Z,69.63
2023-01-20T00:16:32.279Z,69.93
2023-01-20T00:19:00.135Z,69.90
2023-01-20T00:21:28.336Z,70.05
2023-01-20T00:23:56.355Z,69.91
2023-01-20T00:26:24.999Z,70.34
2023-01-20T00:28:57.729Z,70.53
2023-01-20T00:31:30.976Z,70.38
2023-01-20T00:34:00.388Z,70.52
2023-01-20T00:36:31.218Z,70.31
2023-01-20T00:38:59.198Z,70.26
2023-01-20T00:41:26.896Z,70.45
2023-01-20T00:43:54.706Z,70.30
2023-01-20T00:46:23.275Z,70.53
2023-01-20T00:48:51.443Z,70.58
2023-01-20T00:51:19.663Z,70.82
2023-01-20T00:53:47.606Z,70.78
2023-01-20T00:56:15.677Z,70.93
2023-01-20T00:58:45.268Z,70.88
2023-01-20T01:02:00.265Z,71.09
2023-01-20T01:04:30.565Z,71.54
2023-01-20T01:06:58.403Z,71.33
2023-01-20T01:09:26.131Z,71.30
2023-01-20T01:11:53.823Z,71.37
2023-01-20T01:14:21.549Z,71.42
2023-01-20T01:16:51.115Z,71.25
2023-01-20T01:19:20.454Z,71.45
2023-01-20T01:21:49.978Z,71.52
2023-01-20T01:24:19.115Z,71.67
2023-01-20T01:26:48.633Z,71.38
2023-01-20T01:29:16.707Z,71.47
2023-01-20T01:31:44.604Z,71.71
2023-01-20T01:34:12.350Z,71.55
2023-01-20T01:36:40.367Z,71.53
2023-01-20T01:39:08.196Z,71.66
2023-01-20T01:41:35.937Z,71.92
2023-01-20T01:44:07.504Z,72.00
2023-01-20T01:46:36.242Z,72.08
2023-01-20T01:49:10.519Z,72.00
2023-01-20T01:51:42.803Z,72.05
2023-01-20T01:54:17.572Z,71.91
2023-01-20T01:56:48.496Z,71.87
2023-01-20T01:59:18.443Z,72.03
2023-01-20T02:01:53.863Z,72.19
2023-01-20T02:04:27.234Z,72.00
2023-01-20T02:07:17.885Z,71.97
2023-01-20T02:09:46.718Z,71.92
2023-01-20T02:12:18.022Z,72.03
2023-01-20T02:14:49.199Z,72.24
2023-01-20T02:17:46.409Z,72.25
2023-01-20T02:21:13.666Z,72.25
2023-01-20T02:24:07.451Z,72.03
2023-01-20T02:26:59.102Z,72.12
2023-01-20T02:30:05.790Z,72.30
2023-01-20T02:32:49.208Z,72.45
2023-01-20T02:35:29.783Z,72.27
2023-01-20T02:38:12.395Z,72.36
2023-01-20T02:40:54.589Z,72.25
2023-01-20T02:43:28.340Z,72.34
2023-01-20T02:46:00.670Z,72.31
2023-01-20T02:48:34.968Z,72.44
2023-01-20T02:51:10.824Z,72.43
2023-01-20T02:53:54.515Z,72.62
2023-01-20T02:56:29.665Z,72.51
2023-01-20T02:59:03.286Z,72.56
2023-01-20T03:01:36.922Z,72.65
2023-01-20T03:04:06.693Z,72.82
2023-01-20T03:06:38.475Z,72.75
2023-01-20T03:09:09.015Z,72.94
2023-01-20T03:11:43.646Z,72.74
2023-01-20T03:14:14.371Z,72.78
2023-01-20T03:16:42.826Z,72.36
2023-01-20T03:19:10.914Z,72.54
2023-01-20T03:21:38.744Z,72.60
2023-01-20T03:24:07.199Z,72.35
2023-01-20T03:26:34.971Z,72.55
2023-01-20T03:29:08.215Z,72.37
2023-01-20T03:31:49.334Z,72.48
2023-01-20T03:34:23.639Z,72.77
2023-01-20T03:36:53.305Z,72.60
2023-01-20T03:39:23.478Z,72.62
2023-01-20T03:41:56.138Z,72.59
2023-01-20T03:44:51.099Z,72.70
2023-01-20T03:47:25.015Z,72.70
2023-01-20T03:50:19.063Z,73.00
2023-01-20T03:53:18.266Z,72.90
2023-01-20T03:56:07.656Z,72.62
2023-01-20T03:58:37.919Z,73.10
2023-01-20T04:01:17.960Z,73.10
2023-01-20T04:03:50.527Z,73.25
2023-01-20T04:06:21.450Z,73.00
2023-01-20T04:08:56.879Z,73.23
2023-01-20T04:11:26.163Z,73.15
2023-01-20T04:13:56.636Z,73.33
2023-01-20T04:16:25.547Z,73.17
2023-01-20T04:18:54.198Z,73.33
2023-01-20T04:21:42.066Z,73.40
2023-01-20T04:24:21.915Z,73.42
2023-01-20T04:26:49.675Z,73.27
2023-01-20T04:29:17.534Z,73.31
2023-01-20T04:31:45.546Z,73.50
2023-01-20T04:34:15.647Z,73.59
2023-01-20T04:36:43.402Z,73.66
2023-01-20T04:39:11.222Z,73.77
2023-01-20T04:41:39.010Z,73.79
2023-01-20T04:44:06.747Z,73.94
2023-01-20T04:46:36.831Z,74.18
2023-01-20T04:49:05.198Z,74.05
2023-01-20T04:51:33.487Z,74.12
2023-01-20T04:54:01.338Z,74.27
2023-01-20T04:56:29.175Z,74.27
2023-01-20T04:58:57.588Z,74.39
2023-01-20T05:01:25.551Z,74.29
2023-01-20T05:03:53.381Z,74.19
2023-01-20T05:06:21.140Z,74.44
2023-01-20T05:08:49.010Z,74.48
2023-01-20T05:11:17.078Z,74.60
2023-01-20T05:13:44.938Z,74.62
2023-01-20T05:16:12.856Z,74.64
2023-01-20T05:18:40.635Z,74.76
2023-01-20T05:21:08.964Z,74.69
2023-01-20T05:23:36.772Z,74.60
2023-01-20T05:26:04.631Z,74.57
2023-01-20T05:28:32.602Z,74.70
2023-01-20T05:31:00.383Z,74.71
2023-01-20T05:33:28.179Z,74.56
2023-01-20T05:35:56.187Z,74.57
2023-01-20T05:38:24.015Z,74.46
2023-01-20T05:40:59.345Z,74.48
2023-01-20T05:43:27.515Z,74.88
2023-01-20T05:45:55.444Z,74.98
2023-01-20T05:48:23.604Z,74.61
2023-01-20T05:50:51.933Z,74.68
2023-01-20T05:53:19.721Z,74.51
2023-01-20T05:55:47.923Z,74.70
2023-01-20T05:58:16.020Z,74.59
2023-01-20T06:00:43.880Z,74.68
2023-01-20T06:03:11.900Z,74.72
2023-01-20T06:05:42.298Z,74.50
2023-01-20T06:08:10.040Z,74.66
2023-01-20T06:10:37.906Z,74.58
2023-01-20T06:13:05.827Z,74.48
2023-01-20T06:15:33.810Z,74.42
2023-01-20T06:18:01.791Z,74.16
2023-01-20T06:20:30.201Z,74.47
2023-01-20T06:22:58.137Z,74.47
2023-01-20T06:25:25.945Z,74.41
2023-01-20T06:27:53.688Z,74.08
2023-01-20T06:30:21.532Z,74.26
2023-01-20T06:32:49.554Z,74.36
2023-01-20T06:35:17.507Z,74.48
2023-01-20T06:37:45.320Z,74.61
2023-01-20T06:40:14.198Z,74.85
2023-01-20T06:42:42.023Z,75.02
2023-01-20T06:45:10.904Z,75.15
2023-01-20T06:47:38.852Z,75.45
2023-01-20T06:50:07.045Z,75.56
2023-01-20T06:52:34.899Z,75.65
2023-01-20T06:55:02.598Z,75.64
2023-01-20T06:57:30.286Z,75.64
2023-01-20T06:59:59.266Z,75.75
2023-01-20T07:02:27.667Z,75.89
2023-01-20T07:04:55.870Z,75.81
2023-01-20T07:07:23.678Z,75.91
2023-01-20T07:09:54.835Z,75.96
2023-01-20T07:12:22.757Z,76.06
2023-01-20T07:14:50.426Z,75.93
2023-01-20T07:17:18.585Z,75.91
2023-01-20T07:19:46.350Z,76.13
2023-01-20T07:22:14.047Z,75.75
2023-01-20T07:24:42.229Z,75.51
2023-01-20T07:27:09.941Z,75.69
2023-01-20T07:29:38.134Z,75.42
2023-01-20T07:32:06.091Z,75.49
2023-01-20T07:34:34.235Z,75.40
2023-01-20T07:37:02.450Z,75.62
2023-01-20T07:39:30.348Z,75.70
2023-01-20T07:41:58.150Z,75.72
2023-01-20T07:44:26.337Z,75.83
2023-01-20T07:46:54.537Z,75.73
2023-01-20T07:49:22.319Z,75.59
2023-01-20T07:51:50.231Z,75.56
2023-01-20T07:54:18.102Z,75.78
2023-01-20T07:56:51.399Z,76.18
2023-01-20T07:59:19.546Z,76.07
2023-01-20T08:01:47.555Z,75.88
2023-01-20T08:04:15.470Z,75.68
2023-01-20T08:06:44.163Z,75.30
2023-01-20T08:09:14.650Z,75.12
2023-01-20T08:11:42.375Z,75.26
2023-01-20T08:14:11.947Z,75.10
2023-01-20T08:16:39.997Z,74.74
2023-01-20T08:19:08.133Z,75.01
2023-01-20T08:21:36.577Z,74.69
2023-01-20T08:24:06.603Z,74.71
2023-01-20T08:26:34.759Z,74.61
2023-01-20T08:29:07.163Z,74.51
2023-01-20T08:31:35.125Z,74.47
2023-01-20T08:34:03.925Z,74.37
2023-01-20T08:36:36.837Z,74.36
2023-01-20T08:39:07.465Z,74.60
2023-01-20T08:41:38.902Z,74.23
2023-01-20T08:44:07.739Z,74.22
2023-01-20T08:46:40.484Z,74.33
2023-01-20T08:49:17.297Z,74.27
2023-01-20T08:51:45.480Z,74.04
2023-01-20T08:54:14.795Z,73.83
2023-01-20T08:56:42.687Z,73.39
2023-01-20T08:59:11.228Z,73.85
2023-01-20T09:01:39.245Z,73.70
2023-01-20T09:04:07.906Z,72.93
2023-01-20T09:06:45.887Z,72.36
2023-01-20T09:09:16.056Z,72.20
2023-01-20T09:11:51.246Z,72.06
2023-01-20T09:14:21.376Z,71.98
2023-01-20T09:16:49.584Z,71.92
2023-01-20T09:19:19.545Z,72.18
2023-01-20T09:21:48.037Z,71.64
2023-01-20T09:24:16.102Z,71.44
2023-01-20T09:26:44.898Z,71.20
2023-01-20T09:29:17.327Z,71.29
2023-01-20T09:31:50.398Z,71.40
2023-01-20T09:34:24.664Z,71.29
2023-01-20T09:36:54.458Z,71.08
2023-01-20T09:39:41.863Z,70.62
2023-01-20T09:43:08.823Z,70.41
2023-01-20T09:45:47.903Z,70.34
2023-01-20T09:49:23.652Z,69.97
2023-01-20T09:52:34.953Z,69.43
2023-01-20T09:55:38.057Z,69.18
2023-01-20T09:58:20.936Z,68.85
2023-01-20T10:00:55.562Z,68.67
2023-01-20T10:04:04.676Z,68.00
2023-01-20T10:06:44.132Z,67.58
2023-01-20T10:09:12.128Z,67.81
2023-01-20T10:11:46.650Z,67.47
2023-01-20T10:14:35.039Z,67.56
2023-01-20T10:17:30.197Z,67.27
2023-01-20T10:20:23.360Z,67.28
2023-01-20T10:23:03.501Z,67.04
2023-01-20T10:25:41.391Z,66.99
2023-01-20T10:28:16.302Z,66.82
2023-01-20T10:30:49.836Z,66.57
2023-01-20T10:33:29.145Z,65.93
2023-01-20T10:35:59.520Z,65.60
2023-01-20T10:38:39.209Z,65.37
2023-01-20T10:41:32.798Z,64.93
2023-01-20T10:44:00.801Z,64.90
2023-01-20T10:46:31.739Z,64.81
2023-01-20T10:49:15.527Z,64.64
2023-01-20T10:52:15.458Z,64.18
2023-01-20T10:54:46.325Z,64.39
2023-01-20T10:57:15.894Z,64.11
2023-01-20T10:59:49.471Z,64.37
2023-01-20T11:02:28.732Z,64.39
2023-01-20T11:05:00.130Z,64.30
2023-01-20T11:07:32.479Z,64.05
2023-01-20T11:10:39.994Z,64.16
2023-01-20T11:13:13.566Z,63.95
2023-01-20T11:15:49.526Z,63.83
2023-01-20T11:18:33.756Z,63.74
2023-01-20T11:21:12.821Z,64.00
2023-01-20T11:23:55.881Z,63.89
2023-01-20T11:26:29.992Z,63.62
2023-01-20T11:29:10.457Z,63.72
2023-01-20T11:31:43.820Z,63.52
2023-01-20T11:34:27.694Z,63.40
2023-01-20T11:37:06.463Z,63.12
2023-01-20T11:39:42.787Z,63.28
2023-01-20T11:42:16.598Z,63.27
2023-01-20T11:47:40.908Z,62.87
2023-01-20T11:50:12.260Z,62.27
2023-01-20T11:52:47.850Z,62.52
2023-01-20T11:55:20.454Z,62.19
2023-01-20T11:58:03.840Z,62.16
2023-01-20T12:00:43.962Z,62.05
2023-01-20T12:03:37.091Z,61.54
2023-01-20T12:06:19.146Z,61.82
2023-01-20T12:08:55.617Z,61.50
2023-01-20T12:11:30.370Z,61.69
2023-01-20T12:14:20.430Z,61.71
2023-01-20T12:17:03.293Z,61.36
2023-01-20T12:19:42.422Z,61.50
2023-01-20T12:22:17.960Z,61.40
2023-01-20T12:25:08.527Z,61.71
2023-01-20T12:27:45.894Z,61.31
2023-01-20T12:30:34.851Z,61.72
2023-01-20T12:33:02.989Z,61.84
2023-01-20T12:35:39.164Z,62.38
2023-01-20T12:38:08.334Z,62.41
2023-01-20T12:40:46.471Z,62.57
2023-01-20T12:43:17.331Z,62.87
2023-01-20T12:46:09.368Z,62.91
2023-01-20T12:48:49.153Z,62.97
2023-01-20T12:51:50.424Z,63.11
2023-01-20T12:54:48.250Z,63.13
2023-01-20T12:57:55.291Z,63.12
2023-01-20T13:00:31.706Z,63.37
2023-01-20T13:03:22.287Z,63.41
2023-01-20T13:06:19.464Z,63.44
2023-01-20T13:09:22.649Z,63.59
2023-01-20T13:12:12.064Z,63.90
2023-01-20T13:14:44.398Z,63.99
2023-01-20T13:17:38.180Z,64.13
2023-01-20T13:20:22.039Z,64.11
2023-01-20T13:22:51.901Z,64.46
2023-01-20T13:25:24.368Z,64.27
2023-01-20T13:27:54.761Z,64.36
2023-01-20T13:30:48.232Z,64.02
2023-01-20T13:33:28.382Z,64.12
2023-01-20T13:35:57.582Z,64.10
2023-01-20T13:38:33.995Z,63.87
2023-01-20T13:41:06.089Z,64.06
2023-01-20T13:43:43.917Z,63.77
2023-01-20T13:46:11.915Z,63.76
2023-01-20T13:49:04.649Z,63.82
2023-01-20T13:51:38.276Z,63.64
2023-01-20T13:54:32.974Z,63.89
2023-01-20T13:57:20.502Z,63.93
2023-01-20T13:59:48.401Z,64.36
2023-01-20T14:02:28.944Z,64.27
2023-01-20T14:04:59.012Z,64.53
2023-01-20T14:07:29.992Z,64.83
2023-01-20T14:10:00.491Z,64.97
2023-01-20T14:12:28.688Z,65.10
2023-01-20T14:14:56.513Z,65.16
2023-01-20T14:17:24.873Z,65.29
2023-01-20T14:19:55.204Z,65.47
2023-01-20T14:22:27.267Z,65.52
2023-01-20T14:25:01.968Z,66.01
2023-01-20T14:27:40.112Z,66.10
2023-01-20T14:30:22.329Z,66.30
2023-01-20T14:32:55.363Z,66.37
2023-01-20T14:35:33.082Z,66.37
2023-01-20T14:38:04.246Z,66.47
2023-01-20T14:40:37.116Z,66.60
2023-01-20T14:43:16.862Z,66.72
2023-01-20T14:45:49.760Z,66.76
2023-01-20T14:48:33.015Z,66.55
2023-01-20T14:51:04.339Z,66.60
2023-01-20T14:53:32.422Z,66.69
2023-01-20T14:56:09.796Z,66.69
2023-01-20T14:58:47.454Z,66.86
2023-01-20T15:01:22.917Z,67.09
2023-01-20T15:03:59.536Z,67.27
2023-01-20T15:06:28.522Z,67.25
2023-01-20T15:09:06.444Z,67.40
2023-01-20T15:11:36.599Z,67.72
2023-01-20T15:14:08.750Z,67.68
2023-01-20T15:16:36.638Z,67.97
2023-01-20T15:19:13.358Z,68.14
2023-01-20T15:21:47.180Z,68.24
2023-01-20T15:24:20.978Z,68.35
2023-01-20T15:26:54.033Z,68.48
2023-01-20T15:29:27.226Z,68.44
2023-01-20T15:31:57.453Z,68.47
2023-01-20T15:34:26.634Z,68.96
2023-01-20T15:36:55.326Z,69.37
2023-01-20T15:39:31.912Z,69.57
2023-01-20T15:41:59.778Z,69.48
2023-01-20T15:44:27.828Z,69.83
2023-01-20T15:46:57.536Z,70.16
2023-01-20T15:49:25.842Z,70.07
2023-01-20T15:51:53.747Z,70.16
2023-01-20T15:54:21.795Z,70.61
2023-01-20T15:56:49.521Z,70.54
2023-01-20T15:59:21.109Z,70.66
2023-01-20T16:01:50.487Z,70.95
2023-01-20T16:04:18.796Z,70.99
2023-01-20T16:06:46.631Z,71.15
2023-01-20T16:09:38.734Z,71.24
2023-01-20T16:12:10.428Z,71.36
2023-01-20T16:14:39.109Z,71.55
2023-01-20T16:17:16.601Z,71.80
2023-01-20T16:19:45.247Z,71.81
2023-01-20T16:22:14.906Z,71.94
2023-01-20T16:24:45.592Z,72.51
2023-01-20T16:27:18.017Z,72.73
2023-01-20T16:29:47.185Z,72.93
2023-01-20T16:32:17.677Z,73.10
2023-01-20T16:34:47.212Z,73.05
2023-01-20T16:37:15.155Z,73.24
2023-01-20T16:39:42.995Z,73.45
2023-01-20T16:42:13.554Z,73.49
2023-01-20T16:44:41.579Z,73.63
2023-01-20T16:47:09.805Z,73.86
2023-01-20T16:49:38.572Z,73.81
2023-01-20T16:52:11.010Z,73.79
2023-01-20T16:54:38.891Z,73.87
2023-01-20T16:57:06.629Z,74.15
2023-01-20T16:59:35.230Z,74.57
2023-01-20T17:02:03.082Z,74.43
2023-01-20T17:04:31.221Z,74.47
2023-01-20T17:06:59.337Z,74.52
2023-01-20T17:09:27.059Z,74.48
2023-01-20T17:11:54.952Z,74.72
2023-01-20T17:14:23.417Z,74.79
2023-01-20T17:16:51.123Z,74.95
2023-01-20T17:19:18.973Z,74.79
2023-01-20T17:21:47.250Z,74.74
2023-01-20T17:24:14.953Z,74.77
2023-01-20T17:26:42.771Z,75.13
2023-01-20T17:29:11.448Z,75.10
2023-01-20T17:31:40.450Z,74.91
2023-01-20T17:34:09.904Z,75.12
2023-01-20T17:36:38.916Z,75.34
2023-01-20T17:39:07.166Z,74.89
2023-01-20T17:41:35.113Z,75.21
2023-01-20T17:44:04.222Z,75.38
2023-01-20T17:46:32.192Z,75.20
2023-01-20T17:49:01.700Z,75.02
2023-01-20T17:51:30.733Z,75.21
2023-01-20T17:54:02.551Z,75.18
2023-01-20T17:56:32.054Z,75.16
2023-01-20T17:58:59.888Z,75.09
2023-01-20T18:01:32.050Z,75.36
2023-01-20T18:04:01.160Z,75.22
2023-01-20T18:06:29.092Z,75.19
2023-01-20T18:08:59.348Z,75.17
2023-01-20T18:11:30.029Z,75.29
2023-01-20T18:13:59.700Z,75.40
2023-01-20T18:16:30.583Z,75.31
2023-01-20T18:18:59.145Z,75.42
2023-01-20T18:21:32.799Z,75.55
2023-01-20T18:24:02.262Z,75.79
2023-01-20T18:26:32.775Z,75.46
2023-01-20T18:29:07.896Z,75.68
2023-01-20T18:31:36.418Z,75.87
2023-01-20T18:34:07.318Z,75.92
2023-01-20T18:36:40.542Z,75.87
2023-01-20T18:39:14.075Z,76.20
2023-01-20T18:41:42.781Z,76.26
2023-01-20T18:44:11.721Z,76.10
2023-01-20T18:46:39.616Z,76.32
2023-01-20T18:49:09.706Z,75.91
2023-01-20T18:51:38.277Z,76.23
2023-01-20T18:54:09.646Z,76.22
2023-01-20T18:56:37.913Z,76.29
2023-01-20T18:59:07.397Z,75.99
2023-01-20T19:01:37.020Z,76.23
2023-01-20T19:04:06.697Z,76.10
2023-01-20T19:06:37.650Z,76.20
2023-01-20T19:09:06.531Z,76.38
2023-01-20T19:11:41.168Z,76.53
2023-01-20T19:14:13.403Z,76.46
2023-01-20T19:16:49.576Z,76.71
2023-01-20T19:19:19.047Z,76.57
2023-01-20T19:21:49.566Z,76.65
2023-01-20T19:24:21.617Z,76.89
2023-01-20T19:26:49.966Z,76.82
2023-01-20T19:29:18.886Z,76.91
2023-01-20T19:31:47.119Z,76.87
2023-01-20T19:34:15.212Z,76.82
2023-01-20T19:36:43.822Z,76.83
2023-01-20T19:39:11.758Z,77.04
2023-01-20T19:41:39.746Z,76.96
2023-01-20T19:44:08.113Z,77.31
2023-01-20T19:46:38.903Z,77.27
2023-01-20T19:49:07.752Z,77.25
2023-01-20T19:51:36.582Z,77.30
2023-01-20T19:54:05.490Z,77.08
2023-01-20T19:56:35.561Z,77.23
2023-01-20T19:59:03.914Z,77.14
2023-01-20T20:01:33.220Z,77.29
2023-01-20T20:04:05.478Z,77.61
2023-01-20T20:06:38.180Z,77.43
2023-01-20T20:09:26.959Z,77.14
2023-01-20T20:11:56.367Z,77.09
2023-01-20T20:14:24.415Z,77.45
2023-01-20T20:16:52.001Z,77.38
2023-01-20T20:19:20.134Z,77.43
2023-01-20T20:21:48.222Z,77.63
2023-01-20T20:24:16.873Z,77.35
2023-01-20T20:26:46.386Z,77.91
2023-01-20T20:29:16.063Z,78.00
2023-01-20T20:31:43.790Z,77.94
2023-01-20T20:34:13.899Z,78.29
2023-01-20T20:36:41.893Z,78.16
2023-01-20T20:39:12.534Z,78.29
2023-01-20T20:41:40.737Z,78.76
2023-01-20T20:44:09.355Z,78.70
2023-01-20T20:46:37.175Z,79.31
2023-01-20T20:49:04.984Z,78.88
2023-01-20T20:51:34.035Z,79.03
2023-01-20T20:54:02.546Z,79.42
2023-01-20T20:56:32.065Z,79.32
2023-01-20T20:59:02.794Z,79.80
2023-01-20T21:01:33.068Z,79.96
2023-01-20T21:04:01.842Z,79.97
2023-01-20T21:06:30.024Z,80.11
2023-01-20T21:08:58.696Z,79.95
2023-01-20T21:11:27.005Z,80.04
2023-01-20T21:13:55.132Z,80.08
2023-01-20T21:16:23.870Z,80.21
2023-01-20T21:18:52.701Z,80.15
2023-01-20T21:21:20.909Z,80.23
2023-01-20T21:23:51.411Z,80.21
2023-01-20T21:26:19.469Z,80.39
2023-01-20T21:28:49.223Z,80.67
2023-01-20T21:31:19.300Z,80.84
2023-01-20T21:33:49.099Z,80.54
2023-01-20T21:36:16.859Z,80.31
2023-01-20T21:38:46.457Z,80.31
2023-01-20T21:41:15.200Z,80.47
2023-01-20T21:44:02.837Z,80.61
2023-01-20T21:46:32.279Z,80.63
2023-01-20T21:49:18.640Z,80.48
2023-01-20T21:52:05.182Z,80.56
2023-01-20T21:54:33.649Z,79.80
2023-01-20T21:57:01.706Z,79.54
2023-01-20T21:59:29.305Z,79.38
2023-01-20T22:01:57.635Z,79.47
2023-01-20T22:04:25.304Z,79.73
2023-01-20T22:06:52.900Z,80.13
2023-01-20T22:09:20.614Z,80.46
2023-01-20T22:11:49.236Z,80.51
2023-01-20T22:14:16.855Z,80.49
2023-01-20T22:16:44.559Z,80.65
2023-01-20T22:19:13.566Z,81.08
2023-01-20T22:21:41.443Z,81.16
2023-01-20T22:24:09.997Z,81.31
2023-01-20T22:26:37.845Z,81.35
2023-01-20T22:29:05.433Z,81.25
2023-01-20T22:31:34.298Z,81.53
2023-01-20T22:34:04.495Z,81.38
2023-01-20T22:36:32.816Z,81.56
2023-01-20T22:39:01.192Z,81.76
2023-01-20T22:41:29.228Z,81.58
2023-01-20T22:43:57.164Z,82.31
2023-01-20T22:46:26.015Z,82.12
2023-01-20T22:48:55.365Z,82.08
2023-01-20T22:51:24.914Z,82.05
2023-01-20T22:53:54.008Z,82.32
2023-01-20T22:56:26.115Z,82.47
2023-01-20T22:58:55.345Z,82.70
2023-01-20T23:01:24.589Z,82.67
2023-01-20T23:03:56.054Z,82.58
2023-01-20T23:06:24.591Z,82.72
2023-01-20T23:08:52.370Z,82.74
2023-01-20T23:11:21.215Z,82.87
2023-01-20T23:13:49.164Z,82.65
2023-01-20T23:16:18.926Z,82.85
2023-01-20T23:18:46.582Z,83.00
2023-01-20T23:21:14.730Z,82.70
2023-01-20T23:23:42.440Z,82.62
2023-01-20T23:26:14.348Z,82.68
2023-01-20T23:28:43.116Z,82.62
2023-01-20T23:31:12.349Z,82.51
2023-01-20T23:33:43.231Z,82.53
2023-01-20T23:36:13.030Z,82.40
2023-01-20T23:38:40.871Z,82.42
2023-01-20T23:41:08.525Z,82.63
2023-01-20T23:43:36.555Z,82.59
2023-01-20T23:46:06.158Z,82.67
2023-01-20T23:48:34.441Z,82.61
2023-01-20T23:51:03.020Z,82.62
2023-01-20T23:53:31.855Z,82.50
2023-01-20T23:56:00.389Z,82.19
2023-01-20T23:58:28.714Z,82.07
